Time;durP1;ratioP1;P1;durP2;ratioP2;P2;SDS_P1;SDS_P2;PMS_P1;PMS_P2;Temp;Humidity;BMP_temperature;BMP_pressure;BME280_temperature;BME280_humidity;BME280_pressure;Samples;Min_cycle;Max_cycle;Signal;HPM_P1;HPM_P2
2022/04/07 00:00:32;;;;;;;7.30;4.83;;;;;;;;;;5074410;28;20466;-74
2022/04/07 00:03:00;;;;;;;5.10;4.47;;;;;;;;;;5074256;28;20466;-74
2022/04/07 00:05:27;;;;;;;7.20;4.33;;;;;;;;;;5074222;28;20448;-74
2022/04/07 00:07:55;;;;;;;7.90;4.70;;;;;;;;;;5074169;28;20476;-74
2022/04/07 00:10:22;;;;;;;9.53;6.70;;;;;;;;;;5074397;28;20459;-74
2022/04/07 00:12:49;;;;;;;6.80;4.90;;;;;;;;;;5074251;28;20458;-74
2022/04/07 00:15:16;;;;;;;6.17;4.50;;;;;;;;;;5073757;28;21276;-74
2022/04/07 00:17:43;;;;;;;3.70;3.40;;;;;;;;;;5073894;28;20447;-74
2022/04/07 00:20:12;;;;;;;3.30;2.83;;;;;;;;;;5073858;28;20456;-74
2022/04/07 00:22:41;;;;;;;4.67;4.17;;;;;;;;;;5073921;28;20952;-74
2022/04/07 00:25:08;;;;;;;4.13;3.43;;;;;;;;;;5073722;28;20543;-74
2022/04/07 00:27:35;;;;;;;5.40;3.43;;;;;;;;;;5073743;28;20455;-74
2022/04/07 00:30:03;;;;;;;4.10;3.70;;;;;;;;;;5073688;28;20452;-74
2022/04/07 00:32:30;;;;;;;3.63;3.17;;;;;;;;;;5073819;28;20456;-74
2022/04/07 00:34:57;;;;;;;5.23;3.63;;;;;;;;;;5073405;28;20510;-74
2022/04/07 00:37:26;;;;;;;4.63;3.43;;;;;;;;;;5073744;28;21014;-74
2022/04/07 00:39:53;;;;;;;3.70;3.20;;;;;;;;;;5073533;28;20468;-74
2022/04/07 00:42:20;;;;;;;4.67;3.47;;;;;;;;;;5073631;28;20455;-74
2022/04/07 00:44:47;;;;;;;5.80;2.77;;;;;;;;;;5073334;28;20447;-74
2022/04/07 00:47:14;;;;;;;4.90;3.73;;;;;;;;;;5073382;28;20448;-74
2022/04/07 00:49:41;;;;;;;3.37;3.07;;;;;;;;;;5073450;28;20999;-74
2022/04/07 00:52:09;;;;;;;3.63;3.17;;;;;;;;;;5073321;28;20835;-74
2022/04/07 00:54:38;;;;;;;3.33;3.03;;;;;;;;;;5072594;28;20570;-75
2022/04/07 00:57:05;;;;;;;4.90;3.80;;;;;;;;;;5073287;28;20455;-74
2022/04/07 00:59:35;;;;;;;3.97;2.93;;;;;;;;;;5073304;28;20861;-75
2022/04/07 01:02:03;;;;;;;4.27;3.83;;;;;;;;;;5073248;28;20513;-75
2022/04/07 01:04:30;;;;;;;5.10;3.37;;;;;;;;;;5072998;28;20456;-74
2022/04/07 01:06:57;;;;;;;5.37;3.60;;;;;;;;;;5072930;28;20451;-74
2022/04/07 01:09:24;;;;;;;3.63;3.07;;;;;;;;;;5072980;28;20483;-75
2022/04/07 01:11:53;;;;;;;9.60;3.60;;;;;;;;;;5073369;28;20455;-74
2022/04/07 01:14:20;;;;;;;3.60;2.93;;;;;;;;;;5072834;28;20487;-74
2022/04/07 01:16:47;;;;;;;6.97;3.17;;;;;;;;;;5073065;28;20822;-75
2022/04/07 01:19:14;;;;;;;3.33;3.00;;;;;;;;;;5072973;28;20475;-74
2022/04/07 01:21:42;;;;;;;3.60;3.10;;;;;;;;;;5073056;28;20455;-75
2022/04/07 01:24:10;;;;;;;3.10;2.80;;;;;;;;;;5072862;28;20924;-74
2022/04/07 01:26:39;;;;;;;3.67;2.70;;;;;;;;;;5073075;28;20448;-74
2022/04/07 01:29:07;;;;;;;4.83;3.30;;;;;;;;;;5072877;28;20467;-74
2022/04/07 01:31:34;;;;;;;3.47;3.17;;;;;;;;;;5073028;28;20507;-74
2022/04/07 01:34:01;;;;;;;3.47;3.17;;;;;;;;;;5072572;28;20487;-74
2022/04/07 01:36:30;;;;;;;3.70;3.40;;;;;;;;;;5072922;28;20471;-74
2022/04/07 01:38:58;;;;;;;3.97;3.20;;;;;;;;;;5072696;28;20472;-74
2022/04/07 01:41:26;;;;;;;4.67;3.37;;;;;;;;;;5072942;28;20463;-74
2022/04/07 01:43:57;;;;;;;3.63;3.10;;;;;;;;;;5072652;28;20452;-74
2022/04/07 01:46:24;;;;;;;7.00;3.27;;;;;;;;;;5072699;28;20455;-74
2022/04/07 01:48:51;;;;;;;4.70;3.40;;;;;;;;;;5072861;28;20470;-74
2022/04/07 01:51:19;;;;;;;3.03;2.73;;;;;;;;;;5072856;28;20443;-73
2022/04/07 01:53:47;;;;;;;4.17;2.97;;;;;;;;;;5071921;28;20460;-74
2022/04/07 01:56:15;;;;;;;3.60;2.87;;;;;;;;;;5072685;28;20455;-74
2022/04/07 01:58:42;;;;;;;3.23;2.80;;;;;;;;;;5072573;28;20476;-74
2022/04/07 02:01:11;;;;;;;3.33;3.03;;;;;;;;;;5072759;28;20455;-74
2022/04/07 02:03:40;;;;;;;4.20;3.07;;;;;;;;;;5072471;28;20975;-74
2022/04/07 02:06:14;;;;;;;3.27;3.00;;;;;;;;;;5072479;28;20502;-74
2022/04/07 02:08:41;;;;;;;5.27;3.27;;;;;;;;;;5072395;28;20483;-74
2022/04/07 02:11:10;;;;;;;3.87;3.07;;;;;;;;;;5072762;28;20456;-74
2022/04/07 02:13:38;;;;;;;3.83;2.70;;;;;;;;;;5072470;28;20454;-74
2022/04/07 02:16:05;;;;;;;2.97;2.50;;;;;;;;;;5072555;28;20472;-74
2022/04/07 02:18:34;;;;;;;3.77;2.40;;;;;;;;;;5072360;28;20832;-74
2022/04/07 02:21:01;;;;;;;6.63;2.60;;;;;;;;;;5075330;28;20478;-74
2022/04/07 02:23:28;;;;;;;4.00;2.57;;;;;;;;;;5075954;28;20460;-74
2022/04/07 02:25:55;;;;;;;2.60;2.40;;;;;;;;;;5075972;28;20443;-74
2022/04/07 02:28:22;;;;;;;3.73;3.00;;;;;;;;;;5075913;28;20464;-74
2022/04/07 02:30:50;;;;;;;3.60;2.63;;;;;;;;;;5076113;28;20454;-74
2022/04/07 02:33:17;;;;;;;3.60;1.93;;;;;;;;;;5075734;28;20447;-74
2022/04/07 02:35:45;;;;;;;2.50;2.20;;;;;;;;;;5075618;28;20502;-74
2022/04/07 02:38:12;;;;;;;2.90;2.30;;;;;;;;;;5075501;28;20569;-74
2022/04/07 02:40:39;;;;;;;3.57;3.17;;;;;;;;;;5075978;28;20522;-74
2022/04/07 02:43:07;;;;;;;3.20;2.97;;;;;;;;;;5075662;28;20458;-74
2022/04/07 02:45:34;;;;;;;2.30;2.10;;;;;;;;;;5075559;28;20554;-74
2022/04/07 02:48:01;;;;;;;2.90;1.97;;;;;;;;;;5075519;28;20479;-74
2022/04/07 02:50:28;;;;;;;5.13;2.30;;;;;;;;;;5075629;28;20459;-74
2022/04/07 02:52:57;;;;;;;3.00;2.20;;;;;;;;;;5074953;28;20455;-74
2022/04/07 02:55:24;;;;;;;11.13;6.60;;;;;;;;;;5075353;28;20491;-75
2022/04/07 02:57:51;;;;;;;2.70;2.13;;;;;;;;;;5075340;28;20475;-75
2022/04/07 03:00:18;;;;;;;2.27;2.00;;;;;;;;;;5075243;28;20459;-75
2022/04/07 03:02:45;;;;;;;2.40;2.00;;;;;;;;;;5075359;28;20448;-75
2022/04/07 03:05:12;;;;;;;3.20;2.07;;;;;;;;;;5075027;28;20447;-75
2022/04/07 03:07:39;;;;;;;3.17;1.87;;;;;;;;;;5075338;28;20494;-75
2022/04/07 03:10:08;;;;;;;4.07;3.20;;;;;;;;;;5075139;28;20447;-75
2022/04/07 03:12:35;;;;;;;4.33;2.87;;;;;;;;;;5075125;28;20447;-75
2022/04/07 03:15:03;;;;;;;2.43;2.20;;;;;;;;;;5074691;28;21008;-75
2022/04/07 03:17:31;;;;;;;5.03;2.40;;;;;;;;;;5075182;28;20462;-74
2022/04/07 03:19:58;;;;;;;2.47;2.27;;;;;;;;;;5075074;28;20451;-74
2022/04/07 03:22:25;;;;;;;2.77;2.10;;;;;;;;;;5074823;28;20463;-74
2022/04/07 03:24:53;;;;;;;2.10;1.90;;;;;;;;;;5074659;28;20505;-73
2022/04/07 03:27:21;;;;;;;2.80;2.00;;;;;;;;;;5075057;28;20479;-74
2022/04/07 03:29:48;;;;;;;2.97;2.27;;;;;;;;;;5074910;28;20991;-74
2022/04/07 03:32:15;;;;;;;2.20;2.00;;;;;;;;;;5074410;28;20455;-73
2022/04/07 03:34:42;;;;;;;2.03;1.60;;;;;;;;;;5074502;28;20491;-74
2022/04/07 03:37:10;;;;;;;2.73;2.17;;;;;;;;;;5074550;28;20455;-74
2022/04/07 03:39:37;;;;;;;2.50;2.17;;;;;;;;;;5074642;28;20503;-74
2022/04/07 03:42:04;;;;;;;2.07;1.67;;;;;;;;;;5074371;28;21044;-74
2022/04/07 03:44:33;;;;;;;3.23;2.50;;;;;;;;;;5074483;28;20450;-74
2022/04/07 03:47:00;;;;;;;7.70;2.43;;;;;;;;;;5074503;28;20452;-74
2022/04/07 03:49:27;;;;;;;5.60;1.90;;;;;;;;;;5074620;28;20478;-74
2022/04/07 03:51:54;;;;;;;3.10;2.37;;;;;;;;;;5074405;28;20949;-74
2022/04/07 03:54:21;;;;;;;2.80;2.10;;;;;;;;;;5073566;28;20835;-74
2022/04/07 03:56:48;;;;;;;2.60;2.40;;;;;;;;;;5074513;28;20459;-73
2022/04/07 03:59:15;;;;;;;2.27;2.07;;;;;;;;;;5074294;28;20478;-74
2022/04/07 04:01:44;;;;;;;2.20;1.90;;;;;;;;;;5074356;28;20455;-74
2022/04/07 04:04:11;;;;;;;2.20;2.00;;;;;;;;;;5073904;28;20860;-74
2022/04/07 04:06:40;;;;;;;3.40;2.20;;;;;;;;;;5074473;28;20443;-74
2022/04/07 04:09:07;;;;;;;1.90;1.70;;;;;;;;;;5073966;28;20498;-73
2022/04/07 04:11:34;;;;;;;2.13;1.80;;;;;;;;;;5074191;28;20808;-74
2022/04/07 04:14:01;;;;;;;2.80;2.10;;;;;;;;;;5073970;28;20448;-74
2022/04/07 04:16:29;;;;;;;2.87;2.30;;;;;;;;;;5074102;28;20491;-74
2022/04/07 04:18:58;;;;;;;11.33;2.70;;;;;;;;;;5073980;28;21042;-74
2022/04/07 04:21:25;;;;;;;3.27;1.90;;;;;;;;;;5074182;28;20458;-74
2022/04/07 04:23:52;;;;;;;2.10;1.80;;;;;;;;;;5073722;28;20452;-74
2022/04/07 04:26:19;;;;;;;1.90;1.70;;;;;;;;;;5073842;28;20444;-74
2022/04/07 04:28:46;;;;;;;2.13;1.77;;;;;;;;;;5073719;28;20475;-74
2022/04/07 04:31:13;;;;;;;2.17;1.90;;;;;;;;;;5073741;28;20443;-74
2022/04/07 04:33:40;;;;;;;3.30;2.10;;;;;;;;;;5073607;28;20452;-74
2022/04/07 04:36:09;;;;;;;2.43;1.97;;;;;;;;;;5073349;28;20863;-74
2022/04/07 04:38:36;;;;;;;3.03;2.37;;;;;;;;;;5073404;28;20984;-74
2022/04/07 04:41:03;;;;;;;7.13;2.20;;;;;;;;;;5073520;28;20827;-74
2022/04/07 04:43:30;;;;;;;2.27;1.80;;;;;;;;;;5072721;28;20474;-73
2022/04/07 04:45:57;;;;;;;2.53;2.13;;;;;;;;;;5073292;28;20448;-74
2022/04/07 04:48:24;;;;;;;2.40;1.90;;;;;;;;;;5073254;28;20472;-74
2022/04/07 04:50:51;;;;;;;4.77;3.30;;;;;;;;;;5073442;28;20460;-74
2022/04/07 04:53:20;;;;;;;5.00;3.67;;;;;;;;;;5072979;28;20895;-74
2022/04/07 04:55:47;;;;;;;4.43;3.90;;;;;;;;;;5073304;28;20483;-74
2022/04/07 04:58:14;;;;;;;3.80;3.07;;;;;;;;;;5073426;28;20463;-74
2022/04/07 05:00:41;;;;;;;2.50;2.30;;;;;;;;;;5073370;28;20452;-74
2022/04/07 05:03:08;;;;;;;3.63;1.87;;;;;;;;;;5073039;28;20985;-74
2022/04/07 05:05:36;;;;;;;2.57;2.37;;;;;;;;;;5073077;28;20783;-74
2022/04/07 05:08:03;;;;;;;2.23;1.90;;;;;;;;;;5073087;28;20480;-74
2022/04/07 05:10:31;;;;;;;2.63;1.73;;;;;;;;;;5073275;28;20455;-74
2022/04/07 05:12:58;;;;;;;2.00;1.60;;;;;;;;;;5073275;28;20816;-75
2022/04/07 05:15:26;;;;;;;2.73;1.77;;;;;;;;;;5072982;28;20492;-75
2022/04/07 05:17:53;;;;;;;2.63;2.07;;;;;;;;;;5072904;28;20471;-74
2022/04/07 05:20:21;;;;;;;3.20;1.30;;;;;;;;;;5073278;28;20463;-75
2022/04/07 05:22:48;;;;;;;4.13;1.67;;;;;;;;;;5073013;28;20551;-74
2022/04/07 05:25:15;;;;;;;1.63;1.37;;;;;;;;;;5072739;28;20463;-74
2022/04/07 05:27:45;;;;;;;1.90;1.50;;;;;;;;;;5072960;28;20448;-74
2022/04/07 05:30:15;;;;;;;2.00;1.20;;;;;;;;;;5072892;28;20444;-74
2022/04/07 05:32:42;;;;;;;1.63;1.20;;;;;;;;;;5072948;28;20494;-74
2022/04/07 05:35:10;;;;;;;4.50;1.50;;;;;;;;;;5072625;28;20498;-74
2022/04/07 05:37:37;;;;;;;1.60;1.23;;;;;;;;;;5072904;28;20456;-74
2022/04/07 05:40:05;;;;;;;1.70;1.33;;;;;;;;;;5072911;28;20448;-74
2022/04/07 05:42:32;;;;;;;2.23;1.50;;;;;;;;;;5073044;28;20456;-75
2022/04/07 05:45:01;;;;;;;2.63;1.60;;;;;;;;;;5072442;28;20466;-74
2022/04/07 05:47:28;;;;;;;1.60;1.20;;;;;;;;;;5072891;28;20452;-74
2022/04/07 05:49:55;;;;;;;3.50;1.77;;;;;;;;;;5072777;28;20995;-75
2022/04/07 05:52:22;;;;;;;1.80;1.30;;;;;;;;;;5072785;28;20448;-72
2022/04/07 05:54:49;;;;;;;1.57;1.13;;;;;;;;;;5075240;28;20803;-74
2022/04/07 05:57:16;;;;;;;1.50;1.10;;;;;;;;;;5076844;28;20456;-75
2022/04/07 05:59:43;;;;;;;2.73;1.80;;;;;;;;;;5076720;28;20479;-75
2022/04/07 06:02:12;;;;;;;1.80;1.30;;;;;;;;;;5076855;28;20451;-74
2022/04/07 06:04:40;;;;;;;1.80;1.53;;;;;;;;;;5076524;28;20830;-74
2022/04/07 06:07:08;;;;;;;2.23;1.50;;;;;;;;;;5076538;28;20821;-74
2022/04/07 06:09:35;;;;;;;2.10;1.23;;;;;;;;;;5076418;28;21021;-74
2022/04/07 06:12:02;;;;;;;4.13;2.13;;;;;;;;;;5076254;28;20501;-74
2022/04/07 06:14:29;;;;;;;1.60;1.30;;;;;;;;;;5075832;28;20456;-74
2022/04/07 06:16:56;;;;;;;1.80;1.37;;;;;;;;;;5076176;28;20842;-75
2022/04/07 06:19:25;;;;;;;1.60;1.30;;;;;;;;;;5076420;28;20475;-75
2022/04/07 06:21:52;;;;;;;2.27;1.13;;;;;;;;;;5076021;28;20491;-75
2022/04/07 06:24:19;;;;;;;3.43;1.50;;;;;;;;;;5076041;28;20443;-74
2022/04/07 06:26:50;;;;;;;1.90;1.50;;;;;;;;;;5076725;28;20443;-75
2022/04/07 06:29:18;;;;;;;14.80;1.30;;;;;;;;;;5075282;28;20540;-75
2022/04/07 06:31:45;;;;;;;1.70;1.23;;;;;;;;;;5076102;28;20455;-75
2022/04/07 06:34:12;;;;;;;1.73;1.20;;;;;;;;;;5075916;28;20807;-75
2022/04/07 06:36:40;;;;;;;1.40;1.00;;;;;;;;;;5076105;28;20494;-75
2022/04/07 06:39:08;;;;;;;1.50;1.20;;;;;;;;;;5075785;28;20969;-75
2022/04/07 06:41:35;;;;;;;4.60;1.57;;;;;;;;;;5076072;28;20462;-75
2022/04/07 06:44:02;;;;;;;1.83;1.37;;;;;;;;;;5075790;28;20458;-75
2022/04/07 06:46:29;;;;;;;1.60;1.00;;;;;;;;;;5075809;28;20454;-75
2022/04/07 06:48:56;;;;;;;1.60;1.10;;;;;;;;;;5075766;28;20471;-75
2022/04/07 06:51:23;;;;;;;2.87;1.33;;;;;;;;;;5076110;28;20478;-75
2022/04/07 06:53:52;;;;;;;1.40;1.10;;;;;;;;;;5075096;28;20456;-75
2022/04/07 06:56:19;;;;;;;3.57;1.23;;;;;;;;;;5075956;28;20491;-75
2022/04/07 06:58:46;;;;;;;2.70;1.13;;;;;;;;;;5075756;28;20471;-75
2022/04/07 07:01:13;;;;;;;1.40;0.90;;;;;;;;;;5075767;28;20443;-75
2022/04/07 07:03:40;;;;;;;1.43;1.10;;;;;;;;;;5075248;28;20448;-75
2022/04/07 07:06:07;;;;;;;2.80;1.40;;;;;;;;;;5074617;28;20953;-75
2022/04/07 07:08:34;;;;;;;1.50;1.20;;;;;;;;;;5075505;28;20471;-75
2022/04/07 07:11:03;;;;;;;2.30;1.10;;;;;;;;;;5075472;28;20459;-75
2022/04/07 07:13:30;;;;;;;1.70;1.30;;;;;;;;;;5075178;28;20448;-75
2022/04/07 07:15:57;;;;;;;5.23;1.20;;;;;;;;;;5075198;28;21019;-75
2022/04/07 07:18:24;;;;;;;1.90;1.57;;;;;;;;;;5075318;28;21023;-74
2022/04/07 07:20:52;;;;;;;1.90;1.17;;;;;;;;;;5081673;28;20988;-74
2022/04/07 07:23:22;;;;;;;1.40;1.10;;;;;;;;;;5090765;28;20447;-75
2022/04/07 07:25:49;;;;;;;2.73;1.00;;;;;;;;;;5093276;28;20453;-75
2022/04/07 07:28:18;;;;;;;1.60;1.10;;;;;;;;;;5093421;28;20983;-75
2022/04/07 07:30:45;;;;;;;2.53;1.10;;;;;;;;;;5094024;28;20447;-76
2022/04/07 07:33:12;;;;;;;1.40;0.90;;;;;;;;;;5093600;28;20449;-75
2022/04/07 07:35:39;;;;;;;1.53;1.13;;;;;;;;;;5093518;28;20811;-75
2022/04/07 07:38:07;;;;;;;1.53;1.10;;;;;;;;;;5093165;28;20901;-74
2022/04/07 07:40:34;;;;;;;1.50;0.97;;;;;;;;;;5093904;28;20938;-75
2022/04/07 07:43:02;;;;;;;1.50;1.00;;;;;;;;;;5093243;28;20459;-75
2022/04/07 07:45:32;;;;;;;1.70;1.20;;;;;;;;;;5093448;28;20989;-75
2022/04/07 07:47:59;;;;;;;2.30;2.00;;;;;;;;;;5093079;28;20478;-75
2022/04/07 07:50:26;;;;;;;2.03;0.90;;;;;;;;;;5093514;28;20450;-75
2022/04/07 07:52:53;;;;;;;3.53;1.10;;;;;;;;;;5093016;28;20825;-75
2022/04/07 07:55:20;;;;;;;1.87;0.90;;;;;;;;;;5093115;28;20446;-75
2022/04/07 07:57:47;;;;;;;1.30;0.90;;;;;;;;;;5093233;28;20486;-75
2022/04/07 08:00:16;;;;;;;2.27;1.87;;;;;;;;;;5092808;28;20451;-75
2022/04/07 08:02:45;;;;;;;1.50;0.93;;;;;;;;;;5093110;28;20449;-74
2022/04/07 08:05:13;;;;;;;5.10;1.30;;;;;;;;;;5092689;28;20466;-75
2022/04/07 08:07:41;;;;;;;1.67;0.90;;;;;;;;;;5092818;28;20459;-75
2022/04/07 08:10:08;;;;;;;1.97;1.00;;;;;;;;;;5092943;28;20454;-75
2022/04/07 08:12:35;;;;;;;1.30;0.80;;;;;;;;;;5093182;28;20458;-75
2022/04/07 08:15:03;;;;;;;1.53;0.97;;;;;;;;;;5092733;28;20462;-75
2022/04/07 08:17:30;;;;;;;1.40;1.00;;;;;;;;;;5091861;28;20490;-76
2022/04/07 08:19:59;;;;;;;1.20;0.70;;;;;;;;;;5092518;28;20455;-75
2022/04/07 08:22:27;;;;;;;1.30;0.87;;;;;;;;;;5071803;28;20479;-76
2022/04/07 08:24:55;;;;;;;1.20;0.90;;;;;;;;;;5072226;28;20554;-75
2022/04/07 08:27:23;;;;;;;1.30;0.90;;;;;;;;;;5072217;28;20448;-75
2022/04/07 08:29:50;;;;;;;1.40;0.97;;;;;;;;;;5072263;28;20608;-75
2022/04/07 08:32:17;;;;;;;2.70;0.90;;;;;;;;;;5072101;28;20459;-75
2022/04/07 08:34:45;;;;;;;2.10;0.90;;;;;;;;;;5072067;28;20455;-75
2022/04/07 08:37:13;;;;;;;1.30;0.80;;;;;;;;;;5072251;28;20519;-75
2022/04/07 08:39:40;;;;;;;2.07;0.90;;;;;;;;;;5072213;28;20984;-75
2022/04/07 08:42:08;;;;;;;1.30;0.83;;;;;;;;;;5071795;28;20466;-75
2022/04/07 08:44:35;;;;;;;2.33;0.90;;;;;;;;;;5072032;28;20457;-75
2022/04/07 08:47:02;;;;;;;1.40;0.90;;;;;;;;;;5072203;28;20521;-75
2022/04/07 08:49:30;;;;;;;1.20;0.80;;;;;;;;;;5073083;28;20486;-76
2022/04/07 08:51:57;;;;;;;1.63;1.17;;;;;;;;;;5072590;28;20462;-76
2022/04/07 08:54:26;;;;;;;1.50;1.00;;;;;;;;;;5072090;28;20459;-76
2022/04/07 08:56:53;;;;;;;1.20;0.83;;;;;;;;;;5072122;28;20487;-75
2022/04/07 08:59:21;;;;;;;1.40;1.00;;;;;;;;;;5072582;28;20507;-76
2022/04/07 09:01:48;;;;;;;1.90;1.30;;;;;;;;;;5072664;28;20459;-75
2022/04/07 09:04:15;;;;;;;1.30;0.80;;;;;;;;;;5071945;28;20459;-75
2022/04/07 09:06:42;;;;;;;1.40;0.80;;;;;;;;;;5072516;28;20456;-76
2022/04/07 09:09:11;;;;;;;1.50;0.80;;;;;;;;;;5072401;28;20498;-76
2022/04/07 09:11:39;;;;;;;2.47;1.10;;;;;;;;;;5072201;28;20455;-76
2022/04/07 09:14:07;;;;;;;1.30;0.90;;;;;;;;;;5071950;28;20453;-77
2022/04/07 09:16:38;;;;;;;1.30;0.80;;;;;;;;;;5072363;28;20487;-76
2022/04/07 09:19:05;;;;;;;1.50;0.80;;;;;;;;;;5072382;28;20525;-76
2022/04/07 09:21:34;;;;;;;2.03;0.87;;;;;;;;;;5072086;28;20461;-76
2022/04/07 09:24:05;;;;;;;1.40;1.00;;;;;;;;;;5072305;28;20463;-76
2022/04/07 09:26:32;;;;;;;1.70;1.10;;;;;;;;;;5072233;28;20560;-76
2022/04/07 09:29:07;;;;;;;1.80;1.20;;;;;;;;;;5071865;28;20593;-76
2022/04/07 09:31:37;;;;;;;1.20;0.80;;;;;;;;;;5072160;28;20455;-76
2022/04/07 09:34:04;;;;;;;1.93;1.00;;;;;;;;;;5071715;28;20459;-76
2022/04/07 09:36:32;;;;;;;1.47;0.90;;;;;;;;;;5074732;28;20863;-76
2022/04/07 09:39:00;;;;;;;2.83;1.10;;;;;;;;;;5092327;28;20478;-76
2022/04/07 09:41:28;;;;;;;1.30;0.90;;;;;;;;;;5092742;28;20455;-76
2022/04/07 09:43:58;;;;;;;1.63;1.07;;;;;;;;;;5092514;28;20462;-76
2022/04/07 09:46:27;;;;;;;1.93;1.10;;;;;;;;;;5092719;28;20989;-76
2022/04/07 09:49:03;;;;;;;1.30;1.00;;;;;;;;;;5091752;28;20471;-75
2022/04/07 09:51:30;;;;;;;1.30;0.90;;;;;;;;;;5087744;28;20996;-76
2022/04/07 09:53:58;;;;;;;1.93;1.10;;;;;;;;;;5072467;28;20957;-76
2022/04/07 09:56:30;;;;;;;1.77;1.10;;;;;;;;;;5072687;28;20456;-76
2022/04/07 09:58:57;;;;;;;2.10;1.30;;;;;;;;;;5072752;28;20992;-76
2022/04/07 10:01:26;;;;;;;4.03;0.90;;;;;;;;;;5072415;28;20447;-76
2022/04/07 10:03:53;;;;;;;1.20;0.83;;;;;;;;;;5072544;28;20945;-76
2022/04/07 10:06:20;;;;;;;1.97;1.00;;;;;;;;;;5073032;28;20452;-76
2022/04/07 10:08:51;;;;;;;2.63;1.40;;;;;;;;;;5072900;28;20476;-76
2022/04/07 10:11:18;;;;;;;1.70;1.20;;;;;;;;;;5072708;28;20459;-76
2022/04/07 10:13:45;;;;;;;2.47;1.30;;;;;;;;;;5072514;28;20492;-76
2022/04/07 10:16:13;;;;;;;3.10;1.10;;;;;;;;;;5072701;28;20505;-76
2022/04/07 10:18:44;;;;;;;1.87;1.20;;;;;;;;;;5072573;28;20482;-76
2022/04/07 10:21:13;;;;;;;1.63;0.97;;;;;;;;;;5072782;28;20447;-76
2022/04/07 10:23:47;;;;;;;1.50;1.00;;;;;;;;;;5072522;28;20455;-76
2022/04/07 10:26:15;;;;;;;2.47;1.30;;;;;;;;;;5072508;28;20452;-76
2022/04/07 10:28:42;;;;;;;2.20;1.03;;;;;;;;;;5072607;28;20471;-76
2022/04/07 10:31:16;;;;;;;1.70;1.20;;;;;;;;;;5072663;28;20455;-76
2022/04/07 10:33:46;;;;;;;2.17;1.83;;;;;;;;;;5072348;28;20452;-76
2022/04/07 10:36:15;;;;;;;1.93;1.47;;;;;;;;;;5072475;28;20509;-76
2022/04/07 10:38:43;;;;;;;3.67;1.60;;;;;;;;;;5072261;28;20502;-76
2022/04/07 10:41:11;;;;;;;1.87;1.27;;;;;;;;;;5073827;28;20451;-76
2022/04/07 10:43:39;;;;;;;1.97;1.17;;;;;;;;;;5075978;28;20447;-75
2022/04/07 10:46:07;;;;;;;1.90;1.17;;;;;;;;;;5075716;28;20463;-76
2022/04/07 10:48:35;;;;;;;1.53;1.00;;;;;;;;;;5075917;28;20476;-76
2022/04/07 10:51:04;;;;;;;1.50;1.00;;;;;;;;;;5076329;28;20447;-76
2022/04/07 10:53:32;;;;;;;2.00;1.50;;;;;;;;;;5075447;28;20969;-76
2022/04/07 10:56:06;;;;;;;1.60;1.10;;;;;;;;;;5078984;28;20462;-76
2022/04/07 10:58:44;;;;;;;5.20;1.23;;;;;;;;;;5094208;28;20485;-76
2022/04/07 11:01:16;;;;;;;1.60;1.03;;;;;;;;;;5094287;28;20455;-76
2022/04/07 11:03:45;;;;;;;1.57;1.17;;;;;;;;;;5094113;28;20455;-76
2022/04/07 11:06:23;;;;;;;1.93;1.43;;;;;;;;;;5093674;28;20521;-76
2022/04/07 11:09:12;;;;;;;1.33;0.90;;;;;;;;;;5094439;28;20494;-76
2022/04/07 11:11:54;;;;;;;1.37;1.07;;;;;;;;;;5094427;28;20503;-76
2022/04/07 11:14:27;;;;;;;3.00;1.13;;;;;;;;;;5092037;28;20565;-76
2022/04/07 11:16:57;;;;;;;2.43;1.00;;;;;;;;;;5094038;28;20925;-75
2022/04/07 11:19:35;;;;;;;3.00;1.17;;;;;;;;;;5094698;28;20998;-76
2022/04/07 11:22:09;;;;;;;1.80;0.93;;;;;;;;;;5094064;28;20466;-76
2022/04/07 11:24:43;;;;;;;1.43;0.97;;;;;;;;;;5094195;28;20532;-76
2022/04/07 11:27:31;;;;;;;1.40;0.80;;;;;;;;;;5093869;28;20451;-76
2022/04/07 11:30:05;;;;;;;2.60;1.40;;;;;;;;;;5089134;28;20959;-76
2022/04/07 11:32:32;;;;;;;3.10;1.10;;;;;;;;;;5093861;28;20454;-75
2022/04/07 11:35:12;;;;;;;2.80;1.10;;;;;;;;;;5093640;28;20450;-76
2022/04/07 11:37:41;;;;;;;2.20;1.80;;;;;;;;;;5093794;28;20494;-76
2022/04/07 11:40:09;;;;;;;4.23;1.90;;;;;;;;;;5093485;28;20833;-76
2022/04/07 11:42:36;;;;;;;2.57;1.30;;;;;;;;;;5093649;28;20462;-76
2022/04/07 11:45:04;;;;;;;1.57;1.37;;;;;;;;;;5092873;28;21032;-75
2022/04/07 11:47:33;;;;;;;1.93;1.00;;;;;;;;;;5092422;28;20473;-76
2022/04/07 11:50:00;;;;;;;1.70;1.10;;;;;;;;;;5093429;28;20451;-75
2022/04/07 11:52:28;;;;;;;1.50;1.10;;;;;;;;;;5092998;28;20482;-75
2022/04/07 11:54:57;;;;;;;1.87;1.20;;;;;;;;;;5093288;28;20446;-75
2022/04/07 11:57:25;;;;;;;1.80;1.40;;;;;;;;;;5093349;28;20568;-75
2022/04/07 11:59:55;;;;;;;2.67;1.20;;;;;;;;;;5093526;28;20844;-75
2022/04/07 12:02:22;;;;;;;1.50;1.03;;;;;;;;;;5093214;28;20515;-75
2022/04/07 12:04:56;;;;;;;3.83;1.20;;;;;;;;;;5093264;28;20549;-75
2022/04/07 12:07:23;;;;;;;1.23;0.80;;;;;;;;;;5093653;28;20788;-76
2022/04/07 12:09:50;;;;;;;4.80;1.10;;;;;;;;;;5092976;28;20471;-75
2022/04/07 12:12:19;;;;;;;1.57;1.00;;;;;;;;;;5093109;28;20508;-76
2022/04/07 12:14:47;;;;;;;2.13;1.20;;;;;;;;;;5092956;28;20451;-75
2022/04/07 12:17:14;;;;;;;2.20;0.90;;;;;;;;;;5092733;28;20502;-76
2022/04/07 12:19:45;;;;;;;4.80;1.10;;;;;;;;;;5092829;28;20481;-75
2022/04/07 12:22:12;;;;;;;1.50;0.97;;;;;;;;;;5093049;28;20498;-76
2022/04/07 12:24:39;;;;;;;4.33;1.20;;;;;;;;;;5092976;28;20983;-76
2022/04/07 12:27:08;;;;;;;3.43;1.00;;;;;;;;;;5092965;28;20827;-76
2022/04/07 12:29:36;;;;;;;3.20;1.17;;;;;;;;;;5092960;28;20481;-75
2022/04/07 12:32:06;;;;;;;1.50;1.20;;;;;;;;;;5092812;28;20451;-75
2022/04/07 12:34:34;;;;;;;2.40;1.03;;;;;;;;;;5092895;28;20967;-75
2022/04/07 12:37:01;;;;;;;2.23;1.00;;;;;;;;;;5092653;28;20537;-75
2022/04/07 12:39:31;;;;;;;1.93;1.13;;;;;;;;;;5092809;28;20841;-76
2022/04/07 12:42:04;;;;;;;1.57;1.10;;;;;;;;;;5092789;28;20458;-75
2022/04/07 12:44:34;;;;;;;2.80;1.17;;;;;;;;;;5093062;28;20522;-76
2022/04/07 12:47:11;;;;;;;4.33;1.83;;;;;;;;;;5094228;28;20561;-76
2022/04/07 12:49:38;;;;;;;2.10;1.10;;;;;;;;;;5093721;28;20983;-75
2022/04/07 12:52:07;;;;;;;3.20;1.20;;;;;;;;;;5093817;28;20454;-75
2022/04/07 12:54:35;;;;;;;2.20;1.30;;;;;;;;;;5093328;28;20516;-76
2022/04/07 12:57:10;;;;;;;1.50;1.10;;;;;;;;;;5093779;28;20447;-75
2022/04/07 12:59:37;;;;;;;1.40;1.10;;;;;;;;;;5093803;28;20569;-75
2022/04/07 13:02:06;;;;;;;1.70;1.10;;;;;;;;;;5093763;28;20447;-75
2022/04/07 13:04:46;;;;;;;3.87;1.30;;;;;;;;;;5092854;28;20943;-75
2022/04/07 13:07:13;;;;;;;1.40;0.90;;;;;;;;;;5093691;28;20450;-75
2022/04/07 13:09:40;;;;;;;1.50;1.10;;;;;;;;;;5093468;28;20474;-75
2022/04/07 13:12:07;;;;;;;3.23;1.10;;;;;;;;;;5093451;28;20948;-74
2022/04/07 13:14:35;;;;;;;3.87;1.40;;;;;;;;;;5093336;28;20461;-74
2022/04/07 13:17:02;;;;;;;3.00;1.00;;;;;;;;;;5093337;28;20509;-74
2022/04/07 13:19:30;;;;;;;4.40;1.20;;;;;;;;;;5093384;28;20490;-75
2022/04/07 13:21:57;;;;;;;2.63;1.47;;;;;;;;;;5093110;28;20454;-74
2022/04/07 13:24:25;;;;;;;1.40;0.90;;;;;;;;;;5093465;28;20442;-74
2022/04/07 13:26:52;;;;;;;3.23;1.37;;;;;;;;;;5093494;28;20496;-74
2022/04/07 13:29:19;;;;;;;2.13;1.27;;;;;;;;;;5093245;28;20463;-75
2022/04/07 13:31:46;;;;;;;2.90;1.37;;;;;;;;;;5093313;28;20450;-74
2022/04/07 13:34:14;;;;;;;4.53;1.63;;;;;;;;;;5093237;28;20577;-74
2022/04/07 13:36:42;;;;;;;1.83;1.37;;;;;;;;;;5093219;28;20454;-75
2022/04/07 13:39:11;;;;;;;2.10;1.30;;;;;;;;;;5093023;28;21015;-75
2022/04/07 13:41:39;;;;;;;7.17;1.23;;;;;;;;;;5093197;28;20446;-74
2022/04/07 13:44:06;;;;;;;3.10;1.20;;;;;;;;;;5092885;28;20454;-74
2022/04/07 13:46:33;;;;;;;1.43;0.90;;;;;;;;;;5093271;28;20956;-74
2022/04/07 13:49:00;;;;;;;3.43;2.20;;;;;;;;;;5093027;28;20470;-74
2022/04/07 13:51:28;;;;;;;1.93;1.17;;;;;;;;;;5093257;28;20491;-75
2022/04/07 13:53:56;;;;;;;1.90;1.40;;;;;;;;;;5092837;28;20837;-75
2022/04/07 13:56:23;;;;;;;2.57;1.17;;;;;;;;;;5093071;28;20451;-74
2022/04/07 13:58:51;;;;;;;2.83;1.20;;;;;;;;;;5092831;28;20997;-74
2022/04/07 14:01:21;;;;;;;4.00;1.53;;;;;;;;;;5092913;28;20459;-74
2022/04/07 14:03:48;;;;;;;5.03;1.80;;;;;;;;;;5092822;28;20454;-74
2022/04/07 14:06:15;;;;;;;5.43;1.60;;;;;;;;;;5092815;28;20804;-75
2022/04/07 14:08:43;;;;;;;3.00;1.67;;;;;;;;;;5092965;28;20545;-74
2022/04/07 14:11:11;;;;;;;1.80;1.40;;;;;;;;;;5093240;28;20446;-74
2022/04/07 14:13:38;;;;;;;5.70;3.33;;;;;;;;;;5092880;28;20462;-74
2022/04/07 14:16:06;;;;;;;4.57;3.40;;;;;;;;;;5095831;28;20962;-74
2022/04/07 14:18:33;;;;;;;3.00;1.87;;;;;;;;;;5096680;28;20874;-74
2022/04/07 14:21:00;;;;;;;3.60;1.50;;;;;;;;;;5096513;28;20442;-74
2022/04/07 14:23:27;;;;;;;1.93;1.20;;;;;;;;;;5096505;28;20463;-74
2022/04/07 14:25:54;;;;;;;2.10;1.10;;;;;;;;;;5096627;28;20457;-74
2022/04/07 14:28:22;;;;;;;4.40;1.23;;;;;;;;;;5096579;28;20847;-74
2022/04/07 14:30:49;;;;;;;3.90;1.80;;;;;;;;;;5096590;28;20455;-74
2022/04/07 14:33:17;;;;;;;9.10;1.30;;;;;;;;;;5096461;28;20923;-75
2022/04/07 14:35:44;;;;;;;2.73;1.10;;;;;;;;;;5096142;28;20450;-75
2022/04/07 14:38:12;;;;;;;1.20;0.70;;;;;;;;;;5096139;28;20497;-75
2022/04/07 14:40:39;;;;;;;1.83;0.80;;;;;;;;;;5096250;28;20541;-75
2022/04/07 14:43:07;;;;;;;1.40;0.80;;;;;;;;;;5096184;28;20455;-75
2022/04/07 14:45:37;;;;;;;1.40;0.80;;;;;;;;;;5096157;28;20447;-75
2022/04/07 14:48:05;;;;;;;1.47;0.77;;;;;;;;;;5096082;28;20520;-75